Time;durP1;ratioP1;P1;durP2;ratioP2;P2;SDS_P1;SDS_P2;PMS_P1;PMS_P2;Temp;Humidity;BMP_temperature;BMP_pressure;BME280_temperature;BME280_humidity;BME280_pressure;Samples;Min_cycle;Max_cycle;Signal;HPM_P1;HPM_P2
2022/06/15 00:01:38;;;;;;;;;;;14.70;99.90;;;;;;5083056;27;38791;-55
2022/06/15 00:04:06;;;;;;;;;;;14.60;99.90;;;;;;5083289;27;38852;-54
2022/06/15 00:06:38;;;;;;;;;;;14.60;99.90;;;;;;5082076;28;39864;-55
2022/06/15 00:09:05;;;;;;;;;;;14.60;99.90;;;;;;5083800;27;38542;-55
2022/06/15 00:11:33;;;;;;;;;;;14.60;99.90;;;;;;5083636;27;35880;-55
2022/06/15 00:14:02;;;;;;;;;;;14.50;99.90;;;;;;5083158;27;38414;-55
2022/06/15 00:16:30;;;;;;;;;;;14.50;99.90;;;;;;5083000;27;38434;-55
2022/06/15 00:18:57;;;;;;;;;;;14.50;99.90;;;;;;5081934;27;38258;-56
2022/06/15 00:21:25;;;;;;;;;;;14.50;99.90;;;;;;5085348;27;36243;-55
2022/06/15 00:23:52;;;;;;;;;;;14.40;99.90;;;;;;5086756;27;38619;-55
2022/06/15 00:26:19;;;;;;;;;;;14.40;99.90;;;;;;5087730;27;38368;-55
2022/06/15 00:28:46;;;;;;;;;;;14.40;99.90;;;;;;5087415;27;37925;-55
2022/06/15 00:31:13;;;;;;;;;;;14.40;99.90;;;;;;5087665;27;36001;-54
2022/06/15 00:33:41;;;;;;;;;;;14.40;99.90;;;;;;5087198;27;38301;-55
2022/06/15 00:36:09;;;;;;;;;;;14.40;99.90;;;;;;5084876;27;37725;-55
2022/06/15 00:38:38;;;;;;;;;;;14.40;99.90;;;;;;5085734;27;36837;-55
2022/06/15 00:41:06;;;;;;;;;;;14.40;99.90;;;;;;5085768;27;35089;-54
2022/06/15 00:43:36;;;;;;;;;;;14.40;99.90;;;;;;5087350;27;37661;-55
2022/06/15 00:46:13;;;;;;;;;;;14.40;99.90;;;;;;5085815;27;39070;-55
2022/06/15 00:48:41;;;;;;;;;;;14.40;99.90;;;;;;5085736;27;37180;-54
2022/06/15 00:51:08;;;;;;;;;;;14.60;99.90;;;;;;5086938;27;35146;-55
2022/06/15 00:53:37;;;;;;;;;;;14.40;99.90;;;;;;5085426;27;38362;-56
2022/06/15 00:56:04;;;;;;;;;;;14.40;99.90;;;;;;5086703;27;37943;-55
2022/06/15 00:58:32;;;;;;;;;;;14.40;99.90;;;;;;5085342;27;37892;-55
2022/06/15 01:00:59;;;;;;;;;;;14.40;99.90;;;;;;5084920;27;35984;-54
2022/06/15 01:03:26;;;;;;;;;;;14.40;99.90;;;;;;5085518;27;38421;-55
2022/06/15 01:05:58;;;;;;;;;;;14.30;99.90;;;;;;5085872;27;37842;-54
2022/06/15 01:08:29;;;;;;;;;;;14.30;99.90;;;;;;5085686;27;37154;-55
2022/06/15 01:11:08;;;;;;;;;;;14.30;99.90;;;;;;5084424;27;36823;-55
2022/06/15 01:13:42;;;;;;;;;;;14.30;99.90;;;;;;5086104;27;39096;-55
2022/06/15 01:16:12;;;;;;;;;;;14.30;99.90;;;;;;5085025;27;38046;-55
2022/06/15 01:18:43;;;;;;;;;;;14.30;99.90;;;;;;5085588;27;37405;-55
2022/06/15 01:21:14;;;;;;;;;;;14.30;99.90;;;;;;5088149;27;37089;-54
2022/06/15 01:23:59;;;;;;;;;;;14.30;99.90;;;;;;5086698;27;38309;-55
2022/06/15 01:26:37;;;;;;;;;;;14.30;99.90;;;;;;5086207;27;38667;-55
2022/06/15 01:29:09;;;;;;;;;;;14.30;99.90;;;;;;5085801;27;37726;-54
2022/06/15 01:31:41;;;;;;;;;;;14.30;99.90;;;;;;5086249;27;36426;-54
2022/06/15 01:34:12;;;;;;;;;;;14.20;99.90;;;;;;5084770;27;38927;-56
2022/06/15 01:36:43;;;;;;;;;;;14.20;99.90;;;;;;5086467;27;38681;-54
2022/06/15 01:39:12;;;;;;;;;;;14.20;99.90;;;;;;5084470;27;36962;-55
2022/06/15 01:41:42;;;;;;;;;;;14.20;99.90;;;;;;5085679;27;37929;-54
2022/06/15 01:44:13;;;;;;;;;;;14.20;99.90;;;;;;5085541;27;37728;-54
2022/06/15 01:46:43;;;;;;;;;;;14.10;99.90;;;;;;5086278;28;39979;-54
2022/06/15 01:49:14;;;;;;;;;;;14.10;99.90;;;;;;5085631;27;37500;-54
2022/06/15 01:51:43;;;;;;;;;;;14.00;99.90;;;;;;5085691;27;36239;-55
2022/06/15 01:54:11;;;;;;;;;;;14.00;99.90;;;;;;5085059;27;39680;-55
2022/06/15 01:56:38;;;;;;;;;;;13.90;99.90;;;;;;5086157;27;38261;-54
2022/06/15 01:59:10;;;;;;;;;;;13.90;99.90;;;;;;5086784;27;38373;-55
2022/06/15 02:01:42;;;;;;;;;;;13.80;99.90;;;;;;5085286;27;36955;-55
2022/06/15 02:04:14;;;;;;;;;;;13.70;99.90;;;;;;5085044;27;38128;-54
2022/06/15 02:06:47;;;;;;;;;;;13.70;99.90;;;;;;5085068;27;37580;-54
2022/06/15 02:09:16;;;;;;;;;;;13.70;99.90;;;;;;5084707;27;38138;-55
2022/06/15 02:11:43;;;;;;;;;;;13.60;99.90;;;;;;5085068;27;37012;-54
2022/06/15 02:14:12;;;;;;;;;;;13.70;99.90;;;;;;5085239;27;36619;-54
2022/06/15 02:16:41;;;;;;;;;;;13.60;99.90;;;;;;5085136;27;38729;-55
2022/06/15 02:19:10;;;;;;;;;;;13.60;99.90;;;;;;5084997;27;37327;-55
2022/06/15 02:21:40;;;;;;;;;;;13.60;99.90;;;;;;5084982;27;37027;-55
2022/06/15 02:24:07;;;;;;;;;;;13.60;99.90;;;;;;5084647;27;38283;-55
2022/06/15 02:26:37;;;;;;;;;;;13.50;99.90;;;;;;5085610;27;38310;-54
2022/06/15 02:29:06;;;;;;;;;;;13.50;99.90;;;;;;5085421;27;37867;-55
2022/06/15 02:31:33;;;;;;;;;;;13.50;99.90;;;;;;5083637;28;37250;-55
2022/06/15 02:34:02;;;;;;;;;;;13.50;99.90;;;;;;5084646;27;39604;-55
2022/06/15 02:36:31;;;;;;;;;;;13.40;99.90;;;;;;5084844;28;36626;-55
2022/06/15 02:38:59;;;;;;;;;;;13.30;99.90;;;;;;5084744;27;36066;-55
2022/06/15 02:41:26;;;;;;;;;;;13.30;99.90;;;;;;5085552;27;36277;-54
2022/06/15 02:43:55;;;;;;;;;;;13.30;99.90;;;;;;5085680;27;38992;-55
2022/06/15 02:46:22;;;;;;;;;;;13.20;99.90;;;;;;5084017;27;38618;-53
2022/06/15 02:48:50;;;;;;;;;;;13.20;99.90;;;;;;5085348;28;37731;-55
2022/06/15 02:51:19;;;;;;;;;;;13.20;99.90;;;;;;5085257;27;36114;-55
2022/06/15 02:53:48;;;;;;;;;;;13.20;99.90;;;;;;5084436;27;39219;-55
2022/06/15 02:56:17;;;;;;;;;;;13.10;99.90;;;;;;5084008;27;37805;-54
2022/06/15 02:58:46;;;;;;;;;;;13.10;99.90;;;;;;5084036;27;38056;-53
2022/06/15 03:01:13;;;;;;;;;;;13.20;99.90;;;;;;5083255;27;37112;-54
2022/06/15 03:03:40;;;;;;;;;;;13.20;99.90;;;;;;5085147;27;36515;-55
2022/06/15 03:06:11;;;;;;;;;;;13.20;99.90;;;;;;5085198;27;38261;-55
2022/06/15 03:08:38;;;;;;;;;;;13.20;99.90;;;;;;5084852;27;36591;-55
2022/06/15 03:11:05;;;;;;;;;;;13.20;99.90;;;;;;5084266;27;35148;-55
2022/06/15 03:13:34;;;;;;;;;;;13.20;99.90;;;;;;5084338;27;37823;-55
2022/06/15 03:16:01;;;;;;;;;;;13.20;99.90;;;;;;5084785;28;38233;-56
2022/06/15 03:18:29;;;;;;;;;;;13.40;99.90;;;;;;5084921;27;38831;-55
2022/06/15 03:20:56;;;;;;;;;;;13.30;99.90;;;;;;5086000;27;35808;-55
2022/06/15 03:23:23;;;;;;;;;;;13.30;99.90;;;;;;5086571;27;37850;-54
2022/06/15 03:25:52;;;;;;;;;;;13.40;99.90;;;;;;5084986;27;37006;-55
2022/06/15 03:28:19;;;;;;;;;;;13.40;99.90;;;;;;5084273;27;37858;-55
2022/06/15 03:30:48;;;;;;;;;;;13.40;99.90;;;;;;5084701;27;36270;-55
2022/06/15 03:33:15;;;;;;;;;;;13.50;99.90;;;;;;5084142;27;38271;-55
2022/06/15 03:35:42;;;;;;;;;;;13.50;99.90;;;;;;5084384;27;37744;-55
2022/06/15 03:38:10;;;;;;;;;;;13.60;99.90;;;;;;5084739;27;36014;-55
2022/06/15 03:40:37;;;;;;;;;;;13.60;99.90;;;;;;5084812;28;38628;-55
2022/06/15 03:43:04;;;;;;;;;;;13.70;99.90;;;;;;5084874;27;37546;-55
2022/06/15 03:45:31;;;;;;;;;;;13.70;99.90;;;;;;5084803;27;38148;-55
2022/06/15 03:48:01;;;;;;;;;;;13.80;99.90;;;;;;5083971;27;36763;-54
2022/06/15 03:50:29;;;;;;;;;;;13.80;99.90;;;;;;5084438;27;35912;-55
2022/06/15 03:52:56;;;;;;;;;;;13.80;99.90;;;;;;5083547;27;37953;-55
2022/06/15 03:55:23;;;;;;;;;;;13.80;99.90;;;;;;5084058;27;38121;-55
2022/06/15 03:57:50;;;;;;;;;;;13.80;99.90;;;;;;5086763;27;37879;-55
2022/06/15 04:00:19;;;;;;;;;;;13.90;99.90;;;;;;5087185;27;37684;-55
2022/06/15 04:02:46;;;;;;;;;;;13.90;99.90;;;;;;5088023;27;38813;-55
2022/06/15 04:05:18;;;;;;;;;;;13.90;99.90;;;;;;5088479;27;36867;-55
2022/06/15 04:10:30;;;;;;;;;;;14.00;99.90;;;;;;5087584;27;37147;-55
2022/06/15 04:12:57;;;;;;;;;;;13.90;99.90;;;;;;5087081;27;36396;-55
2022/06/15 04:15:24;;;;;;;;;;;14.00;99.90;;;;;;5086729;27;37811;-55
2022/06/15 04:17:51;;;;;;;;;;;14.00;99.90;;;;;;5087017;27;36056;-55
2022/06/15 04:20:33;;;;;;;;;;;14.00;99.90;;;;;;5086901;27;37097;-55
2022/06/15 04:23:01;;;;;;;;;;;14.00;99.90;;;;;;5087258;28;36767;-54
2022/06/15 04:25:29;;;;;;;;;;;14.00;99.90;;;;;;5086937;27;37605;-54
2022/06/15 04:27:56;;;;;;;;;;;14.00;99.90;;;;;;5086631;27;37314;-55
2022/06/15 04:30:23;;;;;;;;;;;14.10;99.90;;;;;;5086464;27;35090;-56
2022/06/15 04:32:50;;;;;;;;;;;14.20;99.90;;;;;;5087090;27;38242;-55
2022/06/15 04:35:17;;;;;;;;;;;14.30;99.90;;;;;;5087502;27;38499;-54
2022/06/15 04:37:46;;;;;;;;;;;14.30;99.90;;;;;;5086530;27;36150;-55
2022/06/15 04:40:13;;;;;;;;;;;14.40;99.90;;;;;;5086334;27;36515;-56
2022/06/15 04:42:40;;;;;;;;;;;14.40;99.90;;;;;;5088048;27;38467;-55
2022/06/15 04:45:08;;;;;;;;;;;14.40;99.90;;;;;;5087237;27;37815;-55
2022/06/15 04:47:35;;;;;;;;;;;14.40;99.90;;;;;;5085821;27;36005;-55
2022/06/15 04:50:03;;;;;;;;;;;14.30;99.90;;;;;;5087131;27;37174;-55
2022/06/15 04:52:30;;;;;;;;;;;14.40;99.90;;;;;;5086511;27;36517;-55
2022/06/15 04:54:58;;;;;;;;;;;14.30;99.90;;;;;;5085775;27;38804;-55
2022/06/15 04:57:25;;;;;;;;;;;14.30;99.90;;;;;;5086645;27;37430;-55
2022/06/15 04:59:52;;;;;;;;;;;14.30;99.90;;;;;;5086274;27;35947;-55
2022/06/15 05:02:19;;;;;;;;;;;14.40;99.90;;;;;;5085743;27;38067;-55
2022/06/15 05:04:46;;;;;;;;;;;14.50;99.90;;;;;;5086862;27;39087;-55
2022/06/15 05:07:13;;;;;;;;;;;14.50;99.90;;;;;;5085140;27;38537;-56
2022/06/15 05:09:40;;;;;;;;;;;14.60;99.90;;;;;;5083484;27;36287;-55
2022/06/15 05:12:09;;;;;;;;;;;14.60;99.90;;;;;;5083440;27;37135;-55
2022/06/15 05:14:36;;;;;;;;;;;14.70;99.90;;;;;;5083988;28;37290;-55
2022/06/15 05:17:03;;;;;;;;;;;14.80;99.90;;;;;;5083726;27;38361;-54
2022/06/15 05:19:30;;;;;;;;;;;14.70;99.90;;;;;;5084314;28;35035;-55
2022/06/15 05:21:57;;;;;;;;;;;14.70;99.90;;;;;;5084257;27;39195;-55
2022/06/15 05:24:24;;;;;;;;;;;14.80;99.90;;;;;;5085150;28;36796;-55
2022/06/15 05:26:51;;;;;;;;;;;14.80;99.90;;;;;;5085523;27;37072;-55
2022/06/15 05:29:20;;;;;;;;;;;15.00;99.90;;;;;;5086978;27;35202;-55
2022/06/15 05:31:47;;;;;;;;;;;15.10;99.90;;;;;;5082985;27;36494;-56
2022/06/15 05:34:14;;;;;;;;;;;15.30;99.90;;;;;;5084311;27;38550;-55
2022/06/15 05:36:41;;;;;;;;;;;15.50;99.90;;;;;;5084601;27;36010;-55
2022/06/15 05:39:08;;;;;;;;;;;15.60;99.90;;;;;;5084513;27;36169;-55
2022/06/15 05:41:35;;;;;;;;;;;15.80;99.90;;;;;;5084024;27;36576;-57
2022/06/15 05:44:02;;;;;;;;;;;15.90;99.90;;;;;;5086098;27;37903;-55
2022/06/15 05:46:32;;;;;;;;;;;16.00;99.90;;;;;;5084352;27;36354;-55
2022/06/15 05:49:00;;;;;;;;;;;16.20;99.90;;;;;;5085629;27;36095;-56
2022/06/15 05:51:27;;;;;;;;;;;16.40;99.90;;;;;;5085729;27;38759;-55
2022/06/15 05:53:54;;;;;;;;;;;16.50;99.90;;;;;;5086294;27;36677;-55
2022/06/15 05:56:22;;;;;;;;;;;16.70;99.90;;;;;;5084173;28;37368;-55
2022/06/15 05:58:49;;;;;;;;;;;16.80;99.90;;;;;;5085061;27;37028;-55
2022/06/15 06:01:19;;;;;;;;;;;16.90;99.90;;;;;;5084706;27;37893;-56
2022/06/15 06:03:48;;;;;;;;;;;17.10;99.90;;;;;;5084898;27;38077;-55
2022/06/15 06:06:15;;;;;;;;;;;17.30;99.90;;;;;;5085775;27;37728;-55
2022/06/15 06:08:42;;;;;;;;;;;17.50;99.90;;;;;;5083434;27;36219;-55
2022/06/15 06:11:09;;;;;;;;;;;17.70;99.90;;;;;;5084018;27;37884;-55
2022/06/15 06:13:36;;;;;;;;;;;17.80;99.90;;;;;;5083699;27;38218;-56
2022/06/15 06:16:03;;;;;;;;;;;17.90;99.90;;;;;;5084276;27;37935;-55
2022/06/15 06:18:30;;;;;;;;;;;17.90;99.90;;;;;;5083433;27;36375;-55
2022/06/15 06:20:58;;;;;;;;;;;18.10;99.90;;;;;;5081740;27;37619;-56
2022/06/15 06:23:26;;;;;;;;;;;18.30;99.90;;;;;;5083941;28;38651;-55
2022/06/15 06:25:53;;;;;;;;;;;18.40;99.90;;;;;;5083763;27;35935;-55
2022/06/15 06:28:24;;;;;;;;;;;18.50;99.90;;;;;;5084178;27;36170;-55
2022/06/15 06:30:52;;;;;;;;;;;18.60;99.90;;;;;;5083957;27;39594;-56
2022/06/15 06:33:19;;;;;;;;;;;18.80;99.90;;;;;;5084398;27;37900;-56
2022/06/15 06:35:46;;;;;;;;;;;18.90;99.90;;;;;;5085092;27;38765;-55
2022/06/15 06:38:15;;;;;;;;;;;19.00;99.90;;;;;;5082442;27;37060;-56
2022/06/15 06:40:43;;;;;;;;;;;19.30;99.90;;;;;;5083830;28;38332;-56
2022/06/15 06:43:10;;;;;;;;;;;19.30;99.60;;;;;;5083325;27;38074;-55
2022/06/15 06:45:37;;;;;;;;;;;19.30;98.00;;;;;;5084867;27;38471;-55
2022/06/15 06:48:05;;;;;;;;;;;19.30;99.20;;;;;;5084372;27;37147;-55
2022/06/15 06:50:32;;;;;;;;;;;19.30;99.40;;;;;;5084003;27;37601;-55
2022/06/15 06:53:00;;;;;;;;;;;19.30;98.80;;;;;;5084877;27;39839;-55
2022/06/15 06:55:28;;;;;;;;;;;19.20;98.70;;;;;;5082690;27;37972;-55
2022/06/15 06:57:55;;;;;;;;;;;19.20;98.30;;;;;;5081792;27;36384;-55
2022/06/15 07:00:23;;;;;;;;;;;19.00;96.90;;;;;;5081336;27;37532;-55
2022/06/15 07:02:50;;;;;;;;;;;18.90;97.60;;;;;;5085254;27;39695;-55
2022/06/15 07:05:17;;;;;;;;;;;18.70;97.10;;;;;;5084252;28;38471;-56
2022/06/15 07:07:44;;;;;;;;;;;18.60;97.60;;;;;;5083747;28;36287;-55
2022/06/15 07:10:11;;;;;;;;;;;18.60;98.60;;;;;;5083501;27;37861;-55
2022/06/15 07:12:42;;;;;;;;;;;18.50;98.70;;;;;;5084488;27;36695;-55
2022/06/15 07:15:10;;;;;;;;;;;18.40;98.30;;;;;;5082469;27;37266;-55
2022/06/15 07:17:37;;;;;;;;;;;18.40;98.40;;;;;;5084717;27;36171;-55
2022/06/15 07:20:05;;;;;;;;;;;18.30;98.10;;;;;;5084115;27;36438;-55
2022/06/15 07:22:32;;;;;;;;;;;18.30;98.70;;;;;;5083106;28;37458;-55
2022/06/15 07:24:59;;;;;;;;;;;18.20;98.90;;;;;;5082385;28;37906;-55
2022/06/15 07:27:26;;;;;;;;;;;18.40;98.70;;;;;;5081948;27;35849;-55
2022/06/15 07:29:55;;;;;;;;;;;18.40;98.90;;;;;;5082404;27;38101;-55
2022/06/15 07:32:22;;;;;;;;;;;18.50;99.20;;;;;;5084930;28;38873;-55
2022/06/15 07:34:49;;;;;;;;;;;18.70;99.90;;;;;;5088518;27;37867;-55
2022/06/15 07:37:17;;;;;;;;;;;19.10;99.10;;;;;;5088883;27;36014;-56
2022/06/15 07:39:44;;;;;;;;;;;19.20;99.00;;;;;;5087382;27;38091;-55
2022/06/15 07:42:11;;;;;;;;;;;19.30;98.60;;;;;;5087865;27;37931;-55
2022/06/15 07:44:38;;;;;;;;;;;19.40;98.00;;;;;;5088140;27;37737;-55
2022/06/15 07:49:56;;;;;;;;;;;19.30;95.40;;;;;;5089879;28;39586;-55
2022/06/15 07:52:23;;;;;;;;;;;19.30;97.00;;;;;;5088682;27;39526;-56
2022/06/15 07:54:50;;;;;;;;;;;19.20;95.60;;;;;;5086296;27;37931;-56
2022/06/15 07:57:18;;;;;;;;;;;19.10;95.60;;;;;;5088051;27;36102;-56
2022/06/15 07:59:45;;;;;;;;;;;19.10;96.00;;;;;;5086693;27;38802;-55
2022/06/15 08:02:14;;;;;;;;;;;19.10;96.00;;;;;;5086591;27;37816;-55
2022/06/15 08:04:41;;;;;;;;;;;19.10;96.60;;;;;;5087224;27;37790;-54
2022/06/15 08:07:09;;;;;;;;;;;19.20;96.90;;;;;;5086294;27;36591;-55
2022/06/15 08:09:36;;;;;;;;;;;19.40;97.30;;;;;;5086567;27;37531;-55
2022/06/15 08:12:14;;;;;;;;;;;19.60;97.00;;;;;;5082981;28;38683;-55
2022/06/15 08:14:43;;;;;;;;;;;19.70;95.70;;;;;;5086652;27;37536;-56
2022/06/15 08:17:12;;;;;;;;;;;19.80;96.20;;;;;;5087084;28;36439;-56
2022/06/15 08:19:42;;;;;;;;;;;20.00;96.00;;;;;;5087564;27;38505;-56
2022/06/15 08:22:10;;;;;;;;;;;20.20;96.20;;;;;;5088695;27;38284;-56
2022/06/15 08:24:37;;;;;;;;;;;20.40;94.90;;;;;;5084592;27;37011;-55
2022/06/15 08:27:05;;;;;;;;;;;20.60;93.80;;;;;;5086516;27;35216;-56
2022/06/15 08:29:33;;;;;;;;;;;20.80;93.40;;;;;;5086314;27;38847;-56
2022/06/15 08:32:00;;;;;;;;;;;20.90;88.10;;;;;;5087866;27;37722;-56
2022/06/15 08:34:28;;;;;;;;;;;20.90;84.50;;;;;;5087281;27;37744;-56
2022/06/15 08:36:57;;;;;;;;;;;20.90;91.40;;;;;;5087635;27;36265;-56
2022/06/15 08:39:24;;;;;;;;;;;21.00;91.30;;;;;;5086593;27;37527;-56
2022/06/15 08:41:55;;;;;;;;;;;21.10;84.20;;;;;;5087707;27;37816;-56
2022/06/15 08:44:26;;;;;;;;;;;21.00;85.20;;;;;;5084323;27;38204;-56
2022/06/15 08:46:58;;;;;;;;;;;21.00;86.10;;;;;;5086402;27;38698;-56
2022/06/15 08:49:31;;;;;;;;;;;20.90;86.70;;;;;;5085476;27;39213;-56
2022/06/15 08:52:00;;;;;;;;;;;20.60;90.00;;;;;;5085762;27;38107;-56
2022/06/15 08:54:28;;;;;;;;;;;20.40;90.40;;;;;;5085237;27;35809;-56
2022/06/15 08:56:59;;;;;;;;;;;20.20;90.80;;;;;;5085667;27;36840;-56
2022/06/15 08:59:30;;;;;;;;;;;20.10;90.70;;;;;;5085538;27;38969;-56
2022/06/15 09:02:04;;;;;;;;;;;19.90;90.60;;;;;;5085294;27;39067;-56
2022/06/15 09:04:35;;;;;;;;;;;19.70;92.10;;;;;;5087189;27;37585;-56
2022/06/15 09:07:12;;;;;;;;;;;19.60;93.70;;;;;;5088680;27;35550;-56
2022/06/15 09:09:45;;;;;;;;;;;19.50;93.70;;;;;;5088449;27;38418;-55
2022/06/15 09:15:03;;;;;;;;;;;19.30;93.30;;;;;;5087977;28;38968;-56
2022/06/15 09:17:32;;;;;;;;;;;19.30;94.80;;;;;;5087363;27;37028;-55
2022/06/15 09:20:01;;;;;;;;;;;19.20;93.80;;;;;;5086976;28;38340;-55
2022/06/15 09:22:33;;;;;;;;;;;19.40;95.20;;;;;;5087640;27;37441;-56
2022/06/15 09:25:02;;;;;;;;;;;19.60;95.30;;;;;;5087446;27;40693;-57
2022/06/15 09:27:32;;;;;;;;;;;19.70;94.40;;;;;;5083049;27;36329;-56
2022/06/15 09:30:02;;;;;;;;;;;19.80;95.20;;;;;;5081242;27;38266;-55
2022/06/15 09:32:32;;;;;;;;;;;19.70;94.90;;;;;;5083403;27;38194;-56
2022/06/15 09:35:03;;;;;;;;;;;19.70;93.80;;;;;;5083065;27;37008;-55
2022/06/15 09:37:34;;;;;;;;;;;19.50;93.20;;;;;;5084263;27;36718;-56
2022/06/15 09:40:02;;;;;;;;;;;19.30;93.60;;;;;;5082951;27;38315;-55
2022/06/15 09:42:33;;;;;;;;;;;19.30;94.60;;;;;;5082021;27;37043;-56
2022/06/15 09:45:03;;;;;;;;;;;19.20;95.70;;;;;;5082849;27;36071;-56
2022/06/15 09:47:37;;;;;;;;;;;19.10;95.70;;;;;;5083841;27;37562;-56
2022/06/15 09:50:07;;;;;;;;;;;19.10;96.30;;;;;;5083599;28;37511;-56
2022/06/15 09:52:41;;;;;;;;;;;19.10;96.10;;;;;;5081738;27;40650;-56
2022/06/15 09:55:11;;;;;;;;;;;19.20;95.00;;;;;;5083328;27;37636;-55
2022/06/15 09:57:39;;;;;;;;;;;19.40;96.00;;;;;;5083108;27;36042;-56
2022/06/15 10:00:07;;;;;;;;;;;19.50;93.30;;;;;;5081747;27;36466;-56
2022/06/15 10:02:38;;;;;;;;;;;19.60;93.80;;;;;;5084467;27;31013;-56
2022/06/15 10:05:06;;;;;;;;;;;19.70;94.30;;;;;;5084002;27;38133;-56
2022/06/15 10:07:35;;;;;;;;;;;19.80;95.20;;;;;;5082222;27;36909;-56
2022/06/15 10:10:14;;;;;;;;;;;19.90;95.10;;;;;;5082194;27;38011;-56
2022/06/15 10:12:58;;;;;;;;;;;19.90;95.10;;;;;;5082481;27;38718;-56
2022/06/15 10:15:28;;;;;;;;;;;20.10;95.00;;;;;;5083244;27;37330;-46
2022/06/15 10:17:57;;;;;;;;;;;20.30;95.30;;;;;;5084990;27;39385;-49
2022/06/15 10:20:27;;;;;;;;;;;20.30;94.00;;;;;;5083499;27;37389;-47
2022/06/15 10:22:55;;;;;;;;;;;20.20;93.20;;;;;;5083583;27;37373;-47
2022/06/15 10:25:24;;;;;;;;;;;20.30;93.60;;;;;;5084749;27;37286;-49
2022/06/15 10:28:05;;;;;;;;;;;20.30;94.20;;;;;;5084296;27;36545;-47
2022/06/15 10:30:35;;;;;;;;;;;20.40;94.30;;;;;;5084418;27;38070;-44
2022/06/15 10:33:03;;;;;;;;;;;20.30;92.30;;;;;;5084254;27;39575;-48
2022/06/15 10:35:31;;;;;;;;;;;20.20;92.00;;;;;;5084787;27;36049;-45
2022/06/15 10:37:59;;;;;;;;;;;20.10;94.00;;;;;;5085033;27;38828;-45
2022/06/15 10:40:29;;;;;;;;;;;20.00;93.10;;;;;;5084403;27;37782;-48
2022/06/15 10:43:00;;;;;;;;;;;19.90;93.80;;;;;;5084087;27;39826;-45
2022/06/15 10:45:33;;;;;;;;;;;19.90;94.40;;;;;;5084284;27;37296;-46
2022/06/15 10:48:01;;;;;;;;;;;19.80;94.80;;;;;;5085243;27;36191;-49
2022/06/15 10:50:31;;;;;;;;;;;19.70;95.30;;;;;;5084455;27;37625;-48
2022/06/15 10:53:00;;;;;;;;;;;19.70;95.70;;;;;;5083769;27;37478;-48
2022/06/15 11:04:20;;;;;;;;;;;20.10;94.10;;;;;;5084840;27;39760;-46
2022/06/15 11:06:49;;;;;;;;;;;20.30;94.90;;;;;;5079488;27;36240;-46
2022/06/15 11:09:28;;;;;;;;;;;20.70;94.70;;;;;;5086254;27;36709;-45
2022/06/15 11:11:57;;;;;;;;;;;20.90;93.40;;;;;;5084008;28;39229;-47
2022/06/15 11:14:26;;;;;;;;;;;21.00;90.90;;;;;;5084430;27;36691;-45
2022/06/15 11:19:40;;;;;;;;;;;21.00;92.00;;;;;;5083838;28;37829;-46
2022/06/15 11:22:09;;;;;;;;;;;20.90;92.90;;;;;;5084740;27;37575;-47
2022/06/15 11:24:39;;;;;;;;;;;20.90;90.50;;;;;;5083538;27;39652;-47
2022/06/15 11:27:11;;;;;;;;;;;20.80;90.00;;;;;;5084281;27;38268;-48
2022/06/15 11:29:41;;;;;;;;;;;20.90;91.50;;;;;;5084010;27;37757;-48
2022/06/15 11:32:14;;;;;;;;;;;20.90;88.60;;;;;;5082937;27;36857;-47
2022/06/15 11:34:44;;;;;;;;;;;20.80;90.70;;;;;;5083665;27;39153;-46
2022/06/15 11:37:15;;;;;;;;;;;20.80;89.10;;;;;;5082663;27;39533;-47
2022/06/15 11:39:44;;;;;;;;;;;20.70;91.30;;;;;;5083764;28;39108;-46
2022/06/15 11:42:15;;;;;;;;;;;20.60;91.90;;;;;;5082728;27;38770;-46
2022/06/15 11:44:43;;;;;;;;;;;20.60;90.30;;;;;;5083230;27;37925;-49
2022/06/15 11:47:17;;;;;;;;;;;20.50;90.90;;;;;;5081905;27;37355;-47
2022/06/15 11:49:48;;;;;;;;;;;20.40;90.90;;;;;;5081962;28;37759;-46
2022/06/15 11:52:19;;;;;;;;;;;20.40;92.30;;;;;;5082293;27;36510;-46
2022/06/15 11:54:57;;;;;;;;;;;20.30;89.90;;;;;;5082010;27;36851;-49
2022/06/15 11:57:31;;;;;;;;;;;20.30;92.20;;;;;;5082457;28;35907;-46
2022/06/15 12:00:03;;;;;;;;;;;20.40;93.10;;;;;;5083250;27;35047;-49
2022/06/15 12:02:35;;;;;;;;;;;20.40;90.80;;;;;;5083479;27;39292;-46
2022/06/15 12:05:13;;;;;;;;;;;20.40;91.20;;;;;;5082722;27;39415;-48
2022/06/15 12:07:42;;;;;;;;;;;20.40;93.00;;;;;;5083135;27;37837;-47
2022/06/15 12:10:16;;;;;;;;;;;20.30;87.00;;;;;;5081198;27;38653;-46
2022/06/15 12:12:48;;;;;;;;;;;20.20;88.20;;;;;;5082609;27;37959;-48
2022/06/15 12:15:25;;;;;;;;;;;20.30;92.80;;;;;;5082277;27;38231;-47
2022/06/15 12:17:55;;;;;;;;;;;20.30;87.30;;;;;;5083788;27;37040;-49
2022/06/15 12:20:29;;;;;;;;;;;20.20;89.90;;;;;;5087164;27;37019;-48
2022/06/15 12:23:00;;;;;;;;;;;20.10;90.30;;;;;;5086469;27;37620;-50
2022/06/15 12:25:33;;;;;;;;;;;20.00;85.40;;;;;;5087307;27;38873;-45
2022/06/15 12:28:04;;;;;;;;;;;20.00;87.50;;;;;;5086929;27;37437;-48
2022/06/15 12:30:36;;;;;;;;;;;20.10;91.30;;;;;;5085245;27;36082;-45
2022/06/15 12:33:07;;;;;;;;;;;20.30;91.30;;;;;;5086419;27;37485;-49
2022/06/15 12:35:38;;;;;;;;;;;20.50;92.20;;;;;;5086280;27;39929;-45
2022/06/15 12:38:10;;;;;;;;;;;20.60;90.70;;;;;;5085716;27;39767;-49
2022/06/15 12:40:39;;;;;;;;;;;20.70;89.00;;;;;;5085526;27;36044;-51
2022/06/15 12:43:17;;;;;;;;;;;20.80;90.30;;;;;;5085782;28;38317;-46
2022/06/15 12:45:46;;;;;;;;;;;20.90;90.80;;;;;;5085648;27;36673;-46
2022/06/15 12:48:16;;;;;;;;;;;21.00;91.10;;;;;;5084489;27;37288;-47
2022/06/15 12:50:48;;;;;;;;;;;21.00;90.00;;;;;;5084704;27;36075;-46
2022/06/15 12:53:23;;;;;;;;;;;21.00;88.10;;;;;;5083561;27;37223;-47
2022/06/15 12:55:53;;;;;;;;;;;20.90;83.80;;;;;;5084679;27;39161;-45
2022/06/15 12:58:27;;;;;;;;;;;20.70;83.50;;;;;;5085164;27;38538;-49
2022/06/15 13:00:57;;;;;;;;;;;20.70;89.90;;;;;;5084773;27;36543;-49
2022/06/15 13:03:33;;;;;;;;;;;20.80;90.70;;;;;;5086561;27;38221;-45
2022/06/15 13:06:20;;;;;;;;;;;20.80;89.00;;;;;;5085624;27;38130;-49
2022/06/15 13:08:48;;;;;;;;;;;20.90;87.40;;;;;;5086051;27;37327;-47
2022/06/15 13:11:16;;;;;;;;;;;20.90;88.80;;;;;;5085304;27;36926;-50
2022/06/15 13:13:48;;;;;;;;;;;20.90;88.10;;;;;;5086956;27;36681;-46
2022/06/15 13:16:26;;;;;;;;;;;20.90;83.10;;;;;;5085457;27;38582;-48
2022/06/15 13:18:55;;;;;;;;;;;20.90;86.20;;;;;;5087047;27;37265;-45
2022/06/15 13:21:23;;;;;;;;;;;20.90;87.10;;;;;;5085016;27;35779;-49
2022/06/15 13:24:00;;;;;;;;;;;20.90;83.90;;;;;;5085480;27;37738;-48
2022/06/15 13:26:47;;;;;;;;;;;20.80;82.90;;;;;;5085772;27;40148;-49
2022/06/15 13:29:26;;;;;;;;;;;20.80;82.10;;;;;;5085129;27;38785;-45
2022/06/15 13:31:54;;;;;;;;;;;20.80;85.90;;;;;;5087170;27;35231;-46
2022/06/15 13:34:36;;;;;;;;;;;20.80;87.00;;;;;;5086562;27;37438;-48
2022/06/15 13:37:27;;;;;;;;;;;20.90;87.00;;;;;;5084508;27;38821;-48
2022/06/15 13:39:56;;;;;;;;;;;20.80;82.40;;;;;;5068954;27;37466;-44
2022/06/15 13:42:38;;;;;;;;;;;20.70;85.90;;;;;;5084230;28;36689;-47
2022/06/15 13:45:09;;;;;;;;;;;20.70;81.80;;;;;;5084233;27;37579;-49
2022/06/15 13:47:48;;;;;;;;;;;20.70;83.90;;;;;;5086835;27;36661;-46
2022/06/15 13:50:16;;;;;;;;;;;20.70;83.30;;;;;;5086547;27;37337;-46
2022/06/15 13:52:46;;;;;;;;;;;20.60;82.60;;;;;;5085084;27;36200;-44
2022/06/15 13:55:29;;;;;;;;;;;20.60;85.30;;;;;;5084368;27;39419;-47
2022/06/15 13:58:03;;;;;;;;;;;20.50;82.90;;;;;;5084360;27;39088;-56
2022/06/15 14:00:39;;;;;;;;;;;20.50;84.10;;;;;;5085622;27;37074;-56
2022/06/15 14:03:15;;;;;;;;;;;20.50;76.60;;;;;;5085949;27;37739;-56
2022/06/15 14:05:49;;;;;;;;;;;20.40;77.00;;;;;;5086067;27;37688;-56
2022/06/15 14:08:26;;;;;;;;;;;20.40;76.10;;;;;;5086197;27;38562;-55
2022/06/15 14:10:57;;;;;;;;;;;20.30;79.60;;;;;;5085540;27;37363;-56
2022/06/15 14:13:33;;;;;;;;;;;20.30;80.00;;;;;;5086254;27;35687;-56
2022/06/15 14:16:15;;;;;;;;;;;20.30;81.00;;;;;;5084989;27;39112;-56
2022/06/15 14:18:44;;;;;;;;;;;20.30;84.40;;;;;;5083663;27;37387;-56
2022/06/15 14:21:16;;;;;;;;;;;20.30;78.80;;;;;;5083493;27;36988;-56
2022/06/15 14:23:43;;;;;;;;;;;20.30;77.60;;;;;;5084110;27;37069;-56
2022/06/15 14:26:12;;;;;;;;;;;20.30;80.60;;;;;;5085584;28;37378;-55
2022/06/15 14:28:40;;;;;;;;;;;20.30;75.60;;;;;;5084817;27;37583;-56
2022/06/15 14:31:08;;;;;;;;;;;20.20;76.10;;;;;;5083825;27;37424;-56
2022/06/15 14:33:37;;;;;;;;;;;20.20;80.20;;;;;;5082370;27;36364;-56
2022/06/15 14:36:08;;;;;;;;;;;20.20;77.10;;;;;;5083041;27;37585;-56
2022/06/15 14:38:36;;;;;;;;;;;20.10;76.90;;;;;;5083292;28;37948;-56
2022/06/15 14:41:15;;;;;;;;;;;20.10;79.80;;;;;;5081860;27;38444;-56
2022/06/15 14:43:42;;;;;;;;;;;20.00;75.70;;;;;;5084028;27;35777;-56
2022/06/15 14:46:13;;;;;;;;;;;20.00;79.10;;;;;;5083040;27;38111;-55
2022/06/15 14:48:45;;;;;;;;;;;20.00;76.40;;;;;;5085290;27;37696;-56
2022/06/15 14:51:14;;;;;;;;;;;19.90;78.50;;;;;;5084327;27;37818;-56